sensor_id;sensor_type;location;lat;lon;timestamp;pressure;altitude;pressure_sealevel;temperature;humidity
38227;BME280;24026;49.446;8.576;2023-03-04T00:01:13;101227.09;;;13.22;33.97
38227;BME280;24026;49.446;8.576;2023-03-04T00:03:33;101231.16;;;13.25;33.90
38227;BME280;24026;49.446;8.576;2023-03-04T00:05:53;101230.09;;;13.26;33.86
38227;BME280;24026;49.446;8.576;2023-03-04T00:08:14;101229.75;;;13.22;34.04
38227;BME280;24026;49.446;8.576;2023-03-04T00:10:34;101242.56;;;13.20;34.10
38227;BME280;24026;49.446;8.576;2023-03-04T00:12:55;101228.97;;;13.22;33.97
38227;BME280;24026;49.446;8.576;2023-03-04T00:15:15;101231.88;;;13.20;33.89
38227;BME280;24026;49.446;8.576;2023-03-04T00:17:35;101232.09;;;13.19;33.93
38227;BME280;24026;49.446;8.576;2023-03-04T00:19:56;101231.03;;;13.20;33.88
38227;BME280;24026;49.446;8.576;2023-03-04T00:22:17;101234.22;;;13.16;33.94
38227;BME280;24026;49.446;8.576;2023-03-04T00:24:37;101236.03;;;13.16;33.97
38227;BME280;24026;49.446;8.576;2023-03-04T00:26:58;101234.44;;;13.15;33.90
38227;BME280;24026;49.446;8.576;2023-03-04T00:29:18;101232.81;;;13.14;33.89
38227;BME280;24026;49.446;8.576;2023-03-04T00:31:39;101241.84;;;13.13;34.06
38227;BME280;24026;49.446;8.576;2023-03-04T00:33:59;101236.19;;;13.09;34.20
38227;BME280;24026;49.446;8.576;2023-03-04T00:36:20;101242.59;;;13.08;34.09
38227;BME280;24026;49.446;8.576;2023-03-04T00:38:40;101240.97;;;13.07;34.18
38227;BME280;24026;49.446;8.576;2023-03-04T00:41:00;101243.88;;;13.06;34.23
38227;BME280;24026;49.446;8.576;2023-03-04T00:43:21;101244.44;;;13.08;34.17
38227;BME280;24026;49.446;8.576;2023-03-04T00:45:42;101250.59;;;13.08;33.93
38227;BME280;24026;49.446;8.576;2023-03-04T00:48:02;101250.50;;;13.03;34.13
38227;BME280;24026;49.446;8.576;2023-03-04T00:50:22;101251.78;;;13.01;34.33
38227;BME280;24026;49.446;8.576;2023-03-04T00:52:43;101248.31;;;13.00;34.29
38227;BME280;24026;49.446;8.576;2023-03-04T00:55:04;101248.06;;;13.02;34.08
38227;BME280;24026;49.446;8.576;2023-03-04T00:57:25;101248.88;;;13.02;34.05
38227;BME280;24026;49.446;8.576;2023-03-04T00:59:45;101245.06;;;12.98;34.32
38227;BME280;24026;49.446;8.576;2023-03-04T01:02:06;101248.78;;;12.97;34.29
38227;BME280;24026;49.446;8.576;2023-03-04T01:04:26;101243.66;;;12.95;34.03
38227;BME280;24026;49.446;8.576;2023-03-04T01:06:47;101244.69;;;12.94;34.27
38227;BME280;24026;49.446;8.576;2023-03-04T01:09:07;101245.75;;;12.93;34.17
38227;BME280;24026;49.446;8.576;2023-03-04T01:11:28;101241.47;;;12.92;34.23
38227;BME280;24026;49.446;8.576;2023-03-04T01:13:48;101240.66;;;12.92;34.32
38227;BME280;24026;49.446;8.576;2023-03-04T01:16:08;101247.28;;;12.89;34.34
38227;BME280;24026;49.446;8.576;2023-03-04T01:18:30;101241.94;;;12.89;34.34
38227;BME280;24026;49.446;8.576;2023-03-04T01:20:50;101242.41;;;12.86;34.25
38227;BME280;24026;49.446;8.576;2023-03-04T01:23:10;101245.34;;;12.85;34.24
38227;BME280;24026;49.446;8.576;2023-03-04T01:25:31;101238.94;;;12.86;34.35
38227;BME280;24026;49.446;8.576;2023-03-04T01:27:52;101241.59;;;12.86;34.20
38227;BME280;24026;49.446;8.576;2023-03-04T01:30:12;101240.00;;;12.85;34.19
38227;BME280;24026;49.446;8.576;2023-03-04T01:32:33;101240.00;;;12.85;34.15
38227;BME280;24026;49.446;8.576;2023-03-04T01:34:53;101229.56;;;12.83;34.39
38227;BME280;24026;49.446;8.576;2023-03-04T01:37:14;101224.69;;;12.80;34.26
38227;BME280;24026;49.446;8.576;2023-03-04T01:39:34;101224.69;;;12.80;34.41
38227;BME280;24026;49.446;8.576;2023-03-04T01:41:55;101225.72;;;12.79;34.34
38227;BME280;24026;49.446;8.576;2023-03-04T01:44:15;101224.13;;;12.78;34.32
38227;BME280;24026;49.446;8.576;2023-03-04T01:46:37;101224.59;;;12.75;34.52
38227;BME280;24026;49.446;8.576;2023-03-04T01:48:58;101219.72;;;12.72;34.32
38227;BME280;24026;49.446;8.576;2023-03-04T01:51:19;101215.41;;;12.71;34.00
38227;BME280;24026;49.446;8.576;2023-03-04T01:53:41;101222.63;;;12.70;34.30
38227;BME280;24026;49.446;8.576;2023-03-04T01:56:35;101222.06;;;12.68;34.50
38227;BME280;24026;49.446;8.576;2023-03-04T02:01:40;101215.44;;;12.59;34.40
38227;BME280;24026;49.446;8.576;2023-03-04T02:04:02;101212.09;;;12.64;34.26
38227;BME280;24026;49.446;8.576;2023-03-04T02:06:23;101213.94;;;12.63;34.46
38227;BME280;24026;49.446;8.576;2023-03-04T02:08:43;101207.53;;;12.64;34.40
38227;BME280;24026;49.446;8.576;2023-03-04T02:11:03;101208.00;;;12.61;34.50
38227;BME280;24026;49.446;8.576;2023-03-04T02:13:24;101212.53;;;12.60;34.22
38227;BME280;24026;49.446;8.576;2023-03-04T02:15:45;101201.88;;;12.60;34.54
38227;BME280;24026;49.446;8.576;2023-03-04T02:18:26;101202.00;;;12.54;34.58
38227;BME280;24026;49.446;8.576;2023-03-04T02:23:33;101206.06;;;12.56;34.47
38227;BME280;24026;49.446;8.576;2023-03-04T02:26:14;101195.03;;;12.53;34.36
38227;BME280;24026;49.446;8.576;2023-03-04T02:28:35;101199.09;;;12.55;34.36
38227;BME280;24026;49.446;8.576;2023-03-04T02:30:55;101192.38;;;12.53;34.43
38227;BME280;24026;49.446;8.576;2023-03-04T02:33:17;101195.03;;;12.53;34.50
38227;BME280;24026;49.446;8.576;2023-03-04T02:35:38;101194.00;;;12.54;34.34
38227;BME280;24026;49.446;8.576;2023-03-04T02:37:58;101192.63;;;12.51;34.29
38227;BME280;24026;49.446;8.576;2023-03-04T02:40:26;101191.00;;;12.50;34.51
38227;BME280;24026;49.446;8.576;2023-03-04T02:42:48;101191.81;;;12.51;34.42
38227;BME280;24026;49.446;8.576;2023-03-04T02:47:49;101192.03;;;12.49;34.58
38227;BME280;24026;49.446;8.576;2023-03-04T02:50:09;101192.50;;;12.46;34.43
38227;BME280;24026;49.446;8.576;2023-03-04T02:52:30;101189.03;;;12.46;34.29
38227;BME280;24026;49.446;8.576;2023-03-04T02:54:50;101196.22;;;12.45;34.55
38227;BME280;24026;49.446;8.576;2023-03-04T02:57:12;101193.56;;;12.45;34.58
38227;BME280;24026;49.446;8.576;2023-03-04T02:59:34;101191.13;;;12.44;34.30
38227;BME280;24026;49.446;8.576;2023-03-04T03:01:55;101189.72;;;12.41;34.40
38227;BME280;24026;49.446;8.576;2023-03-04T03:04:17;101188.13;;;12.40;34.43
38227;BME280;24026;49.446;8.576;2023-03-04T03:06:38;101178.50;;;12.39;34.67
38227;BME280;24026;49.446;8.576;2023-03-04T03:08:59;101184.06;;;12.37;34.54
38227;BME280;24026;49.446;8.576;2023-03-04T03:11:19;101179.78;;;12.36;34.50
38227;BME280;24026;49.446;8.576;2023-03-04T03:13:40;101185.34;;;12.35;34.52
38227;BME280;24026;49.446;8.576;2023-03-04T03:16:00;101175.72;;;12.34;34.50
38227;BME280;24026;49.446;8.576;2023-03-04T03:18:20;101177.59;;;12.33;34.61
38227;BME280;24026;49.446;8.576;2023-03-04T03:20:41;101174.91;;;12.33;34.41
38227;BME280;24026;49.446;8.576;2023-03-04T03:23:01;101178.84;;;12.31;34.56
38227;BME280;24026;49.446;8.576;2023-03-04T03:25:22;101181.75;;;12.29;34.38
38227;BME280;24026;49.446;8.576;2023-03-04T03:27:43;101179.09;;;12.29;34.48
38227;BME280;24026;49.446;8.576;2023-03-04T03:30:04;101174.81;;;12.28;34.52
38227;BME280;24026;49.446;8.576;2023-03-04T03:32:25;101175.03;;;12.27;34.46
38227;BME280;24026;49.446;8.576;2023-03-04T03:34:46;101170.75;;;12.26;34.41
38227;BME280;24026;49.446;8.576;2023-03-04T03:37:06;101176.88;;;12.26;34.66
38227;BME280;24026;49.446;8.576;2023-03-04T03:39:26;101179.81;;;12.25;34.41
38227;BME280;24026;49.446;8.576;2023-03-04T03:41:47;101185.38;;;12.23;34.38
38227;BME280;24026;49.446;8.576;2023-03-04T03:44:07;101188.25;;;12.21;34.50
38227;BME280;24026;49.446;8.576;2023-03-04T03:46:28;101179.66;;;12.19;34.70
38227;BME280;24026;49.446;8.576;2023-03-04T03:48:49;101188.50;;;12.20;34.67
38227;BME280;24026;49.446;8.576;2023-03-04T03:51:09;101194.28;;;12.17;34.54
38227;BME280;24026;49.446;8.576;2023-03-04T03:53:30;101192.19;;;12.19;34.60
38227;BME280;24026;49.446;8.576;2023-03-04T03:55:50;101192.41;;;12.17;34.69
38227;BME280;24026;49.446;8.576;2023-03-04T03:58:10;101190.81;;;12.16;34.53
38227;BME280;24026;49.446;8.576;2023-03-04T04:00:31;101192.66;;;12.16;34.31
38227;BME280;24026;49.446;8.576;2023-03-04T04:02:53;101188.59;;;12.13;34.74
38227;BME280;24026;49.446;8.576;2023-03-04T04:05:14;101195.78;;;12.13;34.40
38227;BME280;24026;49.446;8.576;2023-03-04T04:07:36;101184.09;;;12.14;34.58
38227;BME280;24026;49.446;8.576;2023-03-04T04:09:56;101187.22;;;12.11;34.51
38227;BME280;24026;49.446;8.576;2023-03-04T04:12:18;101192.53;;;12.11;34.74
38227;BME280;24026;49.446;8.576;2023-03-04T04:14:38;101187.66;;;12.08;34.50
38227;BME280;24026;49.446;8.576;2023-03-04T04:16:59;101190.56;;;12.06;34.69
38227;BME280;24026;49.446;8.576;2023-03-04T04:19:20;101186.88;;;12.07;34.59
38227;BME280;24026;49.446;8.576;2023-03-04T04:21:40;101192.41;;;12.05;34.56
38227;BME280;24026;49.446;8.576;2023-03-04T04:24:00;101184.66;;;12.04;34.51
38227;BME280;24026;49.446;8.576;2023-03-04T04:26:21;101186.75;;;12.02;34.56
38227;BME280;24026;49.446;8.576;2023-03-04T04:28:41;101191.03;;;12.03;34.50
38227;BME280;24026;49.446;8.576;2023-03-04T04:31:02;101186.97;;;12.00;34.64
38227;BME280;24026;49.446;8.576;2023-03-04T04:33:25;101180.00;;;11.99;34.61
38227;BME280;24026;49.446;8.576;2023-03-04T04:35:46;101189.88;;;11.99;34.59
38227;BME280;24026;49.446;8.576;2023-03-04T04:38:07;101187.78;;;12.01;34.63
38227;BME280;24026;49.446;8.576;2023-03-04T04:40:28;101184.78;;;11.97;34.55
38227;BME280;24026;49.446;8.576;2023-03-04T04:42:48;101187.44;;;11.97;34.68
38227;BME280;24026;49.446;8.576;2023-03-04T04:45:09;101191.97;;;11.97;34.59
38227;BME280;24026;49.446;8.576;2023-03-04T04:47:29;101192.41;;;11.94;34.55
38227;BME280;24026;49.446;8.576;2023-03-04T04:49:50;101193.44;;;11.93;34.76
38227;BME280;24026;49.446;8.576;2023-03-04T04:52:10;101191.38;;;11.95;34.66
38227;BME280;24026;49.446;8.576;2023-03-04T04:54:31;101189.97;;;11.92;34.23
38227;BME280;24026;49.446;8.576;2023-03-04T04:56:52;101196.38;;;11.91;34.79
38227;BME280;24026;49.446;8.576;2023-03-04T04:59:13;101195.31;;;11.92;34.78
38227;BME280;24026;49.446;8.576;2023-03-04T05:01:34;101195.31;;;11.92;34.67
38227;BME280;24026;49.446;8.576;2023-03-04T05:03:54;101185.91;;;11.90;34.61
38227;BME280;24026;49.446;8.576;2023-03-04T05:06:15;101191.47;;;11.88;34.63
38227;BME280;24026;49.446;8.576;2023-03-04T05:08:36;101194.34;;;11.86;34.58
38227;BME280;24026;49.446;8.576;2023-03-04T05:10:56;101196.19;;;11.86;34.45
38227;BME280;24026;49.446;8.576;2023-03-04T05:13:16;101203.16;;;11.87;34.54
38227;BME280;24026;49.446;8.576;2023-03-04T05:15:38;101202.56;;;11.85;34.62
38227;BME280;24026;49.446;8.576;2023-03-04T05:17:58;101199.13;;;11.84;34.41
38227;BME280;24026;49.446;8.576;2023-03-04T05:20:19;101200.16;;;11.83;34.61
38227;BME280;24026;49.446;8.576;2023-03-04T05:22:39;101195.03;;;11.82;34.55
38227;BME280;24026;49.446;8.576;2023-03-04T05:24:59;101192.38;;;11.82;34.69
38227;BME280;24026;49.446;8.576;2023-03-04T05:27:20;101196.69;;;11.83;34.80
38227;BME280;24026;49.446;8.576;2023-03-04T05:29:40;101193.19;;;11.82;34.66
38227;BME280;24026;49.446;8.576;2023-03-04T05:32:03;101201.41;;;11.81;34.54
38227;BME280;24026;49.446;8.576;2023-03-04T05:34:24;101197.13;;;11.80;34.40
38227;BME280;24026;49.446;8.576;2023-03-04T05:36:44;101189.72;;;11.82;34.59
38227;BME280;24026;49.446;8.576;2023-03-04T05:39:05;101195.50;;;11.79;34.59
38227;BME280;24026;49.446;8.576;2023-03-04T05:41:25;101195.50;;;11.79;34.61
38227;BME280;24026;49.446;8.576;2023-03-04T05:43:46;101191.81;;;11.80;34.58
38227;BME280;24026;49.446;8.576;2023-03-04T05:46:06;101194.91;;;11.77;34.56
38227;BME280;24026;49.446;8.576;2023-03-04T05:48:27;101195.50;;;11.79;34.51
38227;BME280;24026;49.446;8.576;2023-03-04T05:50:55;101190.63;;;11.76;34.59
38227;BME280;24026;49.446;8.576;2023-03-04T05:53:16;101190.97;;;11.79;34.73
38227;BME280;24026;49.446;8.576;2023-03-04T05:55:37;101189.38;;;11.78;34.76
38227;BME280;24026;49.446;8.576;2023-03-04T05:57:57;101192.25;;;11.77;34.46
38227;BME280;24026;49.446;8.576;2023-03-04T06:00:18;101196.56;;;11.78;34.70
38227;BME280;24026;49.446;8.576;2023-03-04T06:02:39;101201.88;;;11.78;34.62
38227;BME280;24026;49.446;8.576;2023-03-04T06:05:00;101202.69;;;11.78;34.59
38227;BME280;24026;49.446;8.576;2023-03-04T06:07:20;101204.53;;;11.78;34.63
38227;BME280;24026;49.446;8.576;2023-03-04T06:09:41;101207.44;;;11.76;34.51
38227;BME280;24026;49.446;8.576;2023-03-04T06:12:04;101209.50;;;11.74;34.69
38227;BME280;24026;49.446;8.576;2023-03-04T06:14:24;101210.31;;;11.75;34.64
38227;BME280;24026;49.446;8.576;2023-03-04T06:16:45;101219.91;;;11.76;34.69
38227;BME280;24026;49.446;8.576;2023-03-04T06:19:05;101222.59;;;11.76;34.47
38227;BME280;24026;49.446;8.576;2023-03-04T06:21:26;101224.44;;;11.75;34.86
38227;BME280;24026;49.446;8.576;2023-03-04T06:23:46;101215.19;;;11.78;34.82
38227;BME280;24026;49.446;8.576;2023-03-04T06:26:07;101224.22;;;11.77;34.79
38227;BME280;24026;49.446;8.576;2023-03-04T06:28:31;101223.63;;;11.75;34.75
38227;BME280;24026;49.446;8.576;2023-03-04T06:30:52;101219.91;;;11.76;34.77
38227;BME280;24026;49.446;8.576;2023-03-04T06:33:13;101223.41;;;11.76;34.75
38227;BME280;24026;49.446;8.576;2023-03-04T06:35:33;101224.44;;;11.75;34.64
38227;BME280;24026;49.446;8.576;2023-03-04T06:37:53;101234.88;;;11.77;34.85
38227;BME280;24026;49.446;8.576;2023-03-04T06:40:14;101234.06;;;11.76;34.88
38227;BME280;24026;49.446;8.576;2023-03-04T06:42:35;101236.72;;;11.76;34.71
38227;BME280;24026;49.446;8.576;2023-03-04T06:44:56;101249.22;;;11.76;34.92
38227;BME280;24026;49.446;8.576;2023-03-04T06:47:16;101237.75;;;11.75;34.59
38227;BME280;24026;49.446;8.576;2023-03-04T06:49:37;101245.75;;;11.75;34.81
38227;BME280;24026;49.446;8.576;2023-03-04T06:51:58;101254.53;;;11.76;34.76
38227;BME280;24026;49.446;8.576;2023-03-04T06:54:18;101249.22;;;11.76;34.76
38227;BME280;24026;49.446;8.576;2023-03-04T06:56:39;101253.75;;;11.75;34.73
38227;BME280;24026;49.446;8.576;2023-03-04T06:58:59;101258.25;;;11.75;34.84
38227;BME280;24026;49.446;8.576;2023-03-04T07:01:25;101250.50;;;11.73;34.85
38227;BME280;24026;49.446;8.576;2023-03-04T07:03:46;101254.53;;;11.76;34.92
38227;BME280;24026;49.446;8.576;2023-03-04T07:06:12;101256.41;;;11.75;34.87
38227;BME280;24026;49.446;8.576;2023-03-04T07:08:33;101257.81;;;11.78;34.71
38227;BME280;24026;49.446;8.576;2023-03-04T07:10:53;101260.94;;;11.75;34.75
38227;BME280;24026;49.446;8.576;2023-03-04T07:13:14;101255.59;;;11.75;34.84
38227;BME280;24026;49.446;8.576;2023-03-04T07:15:34;101261.94;;;11.74;34.87
38227;BME280;24026;49.446;8.576;2023-03-04T07:17:56;101254.78;;;11.74;34.85
38227;BME280;24026;49.446;8.576;2023-03-04T07:20:16;101255.00;;;11.73;35.20
38227;BME280;24026;49.446;8.576;2023-03-04T07:22:37;101260.09;;;11.74;34.72
38227;BME280;24026;49.446;8.576;2023-03-04T07:24:57;101261.16;;;11.73;34.98
38227;BME280;24026;49.446;8.576;2023-03-04T07:27:17;101259.06;;;11.75;34.78
38227;BME280;24026;49.446;8.576;2023-03-04T07:29:38;101266.25;;;11.75;34.70
38227;BME280;24026;49.446;8.576;2023-03-04T07:31:58;101269.94;;;11.74;34.86
38227;BME280;24026;49.446;8.576;2023-03-04T07:34:18;101277.94;;;11.74;34.91
38227;BME280;24026;49.446;8.576;2023-03-04T07:36:39;101279.56;;;11.75;34.79
38227;BME280;24026;49.446;8.576;2023-03-04T07:38:59;101277.72;;;11.75;34.81
38227;BME280;24026;49.446;8.576;2023-03-04T07:41:22;101281.41;;;11.74;34.92
38227;BME280;24026;49.446;8.576;2023-03-04T07:43:43;101280.81;;;11.72;34.90
38227;BME280;24026;49.446;8.576;2023-03-04T07:46:04;101285.13;;;11.73;35.12
38227;BME280;24026;49.446;8.576;2023-03-04T07:48:24;101276.91;;;11.75;34.97
38227;BME280;24026;49.446;8.576;2023-03-04T07:50:44;101288.59;;;11.74;34.96
38227;BME280;24026;49.446;8.576;2023-03-04T07:53:05;101290.22;;;11.75;35.06
38227;BME280;24026;49.446;8.576;2023-03-04T07:55:25;101287.56;;;11.75;35.17
38227;BME280;24026;49.446;8.576;2023-03-04T07:57:47;101282.47;;;11.73;35.21
38227;BME280;24026;49.446;8.576;2023-03-04T08:00:09;101285.94;;;11.74;35.16
38227;BME280;24026;49.446;8.576;2023-03-04T08:02:29;101287.78;;;11.73;35.06
38227;BME280;24026;49.446;8.576;2023-03-04T08:04:49;101285.34;;;11.72;35.05
38227;BME280;24026;49.446;8.576;2023-03-04T08:07:10;101291.25;;;11.74;34.91
38227;BME280;24026;49.446;8.576;2023-03-04T08:09:30;101286.72;;;11.74;35.07
38227;BME280;24026;49.446;8.576;2023-03-04T08:11:51;101289.63;;;11.73;35.07
38227;BME280;24026;49.446;8.576;2023-03-04T08:14:12;101292.28;;;11.73;35.08
38227;BME280;24026;49.446;8.576;2023-03-04T08:16:33;101292.28;;;11.73;35.16
38227;BME280;24026;49.446;8.576;2023-03-04T08:18:56;101291.47;;;11.72;35.08
38227;BME280;24026;49.446;8.576;2023-03-04T08:21:18;101299.47;;;11.72;35.21
38227;BME280;24026;49.446;8.576;2023-03-04T08:23:39;101291.47;;;11.72;35.33
38227;BME280;24026;49.446;8.576;2023-03-04T08:26:06;101296.00;;;11.72;35.13
38227;BME280;24026;49.446;8.576;2023-03-04T08:28:27;101294.94;;;11.73;35.47
38227;BME280;24026;49.446;8.576;2023-03-04T08:30:52;101288.00;;;11.72;35.58
38227;BME280;24026;49.446;8.576;2023-03-04T08:33:12;101299.69;;;11.71;35.27
38227;BME280;24026;49.446;8.576;2023-03-04T08:35:36;101286.94;;;11.73;35.15
38227;BME280;24026;49.446;8.576;2023-03-04T08:37:57;101291.47;;;11.72;35.28
38227;BME280;24026;49.446;8.576;2023-03-04T08:40:17;101295.78;;;11.73;35.31
38227;BME280;24026;49.446;8.576;2023-03-04T08:42:38;101292.88;;;11.75;35.27
38227;BME280;24026;49.446;8.576;2023-03-04T08:44:58;101299.47;;;11.72;35.34
38227;BME280;24026;49.446;8.576;2023-03-04T08:47:19;101291.47;;;11.72;35.52
38227;BME280;24026;49.446;8.576;2023-03-04T08:49:39;101292.06;;;11.74;35.22
38227;BME280;24026;49.446;8.576;2023-03-04T08:51:59;101296.34;;;11.75;35.25
38227;BME280;24026;49.446;8.576;2023-03-04T08:54:20;101289.38;;;11.74;35.19
38227;BME280;24026;49.446;8.576;2023-03-04T08:56:40;101291.81;;;11.76;35.20
38227;BME280;24026;49.446;8.576;2023-03-04T08:59:02;101290.22;;;11.75;35.36
38227;BME280;24026;49.446;8.576;2023-03-04T09:01:22;101295.56;;;11.75;35.45
38227;BME280;24026;49.446;8.576;2023-03-04T09:03:43;101294.50;;;11.76;35.41
38227;BME280;24026;49.446;8.576;2023-03-04T09:06:04;101293.47;;;11.77;35.22
38227;BME280;24026;49.446;8.576;2023-03-04T09:08:24;101298.56;;;11.78;35.30
38227;BME280;24026;49.446;8.576;2023-03-04T09:10:45;101301.22;;;11.78;35.44
38227;BME280;24026;49.446;8.576;2023-03-04T09:13:06;101293.47;;;11.77;35.67
38227;BME280;24026;49.446;8.576;2023-03-04T09:15:27;101295.31;;;11.76;35.67
38227;BME280;24026;49.446;8.576;2023-03-04T09:17:47;101297.28;;;11.81;35.50
38227;BME280;24026;49.446;8.576;2023-03-04T09:20:09;101293.00;;;11.80;35.53
38227;BME280;24026;49.446;8.576;2023-03-04T09:22:30;101292.44;;;11.78;35.45
38227;BME280;24026;49.446;8.576;2023-03-04T09:24:51;101298.34;;;11.80;35.44
38227;BME280;24026;49.446;8.576;2023-03-04T09:27:11;101296.72;;;11.79;35.59
38227;BME280;24026;49.446;8.576;2023-03-04T09:29:32;101294.84;;;11.79;35.72
38227;BME280;24026;49.446;8.576;2023-03-04T09:31:52;101300.78;;;11.81;35.42
38227;BME280;24026;49.446;8.576;2023-03-04T09:34:12;101298.34;;;11.80;35.33
38227;BME280;24026;49.446;8.576;2023-03-04T09:36:33;101294.84;;;11.79;35.70
38227;BME280;24026;49.446;8.576;2023-03-04T09:38:53;101296.72;;;11.79;35.65
38227;BME280;24026;49.446;8.576;2023-03-04T09:41:25;101291.97;;;11.81;35.62
38227;BME280;24026;49.446;8.576;2023-03-04T09:43:49;101296.25;;;11.82;35.73
38227;BME280;24026;49.446;8.576;2023-03-04T09:46:15;101291.97;;;11.81;35.58
38227;BME280;24026;49.446;8.576;2023-03-04T09:48:47;101297.28;;;11.81;35.62
38227;BME280;24026;49.446;8.576;2023-03-04T09:53:48;101302.84;;;11.79;35.55
38227;BME280;24026;49.446;8.576;2023-03-04T09:56:12;101303.00;;;11.84;35.61
38227;BME280;24026;49.446;8.576;2023-03-04T09:59:08;101298.56;;;11.78;35.73
38227;BME280;24026;49.446;8.576;2023-03-04T10:01:40;101304.25;;;11.82;35.58
38227;BME280;24026;49.446;8.576;2023-03-04T10:04:34;101309.00;;;11.80;35.80
38227;BME280;24026;49.446;8.576;2023-03-04T10:07:00;101304.59;;;11.85;35.68
38227;BME280;24026;49.446;8.576;2023-03-04T10:12:12;101314.81;;;11.89;35.81
38227;BME280;24026;49.446;8.576;2023-03-04T10:15:16;101309.69;;;11.87;35.69
38227;BME280;24026;49.446;8.576;2023-03-04T10:17:39;101312.59;;;11.85;35.83
38227;BME280;24026;49.446;8.576;2023-03-04T10:22:59;101311.13;;;11.90;35.76
38227;BME280;24026;49.446;8.576;2023-03-04T10:25:25;101313.31;;;11.93;35.52
38227;BME280;24026;49.446;8.576;2023-03-04T10:33:14;101302.66;;;11.93;35.73
38227;BME280;24026;49.446;8.576;2023-03-04T10:35:35;101303.06;;;11.96;35.75
38227;BME280;24026;49.446;8.576;2023-03-04T10:38:01;101304.09;;;11.95;35.69
38227;BME280;24026;49.446;8.576;2023-03-04T10:40:24;101298.31;;;11.98;35.87
38227;BME280;24026;49.446;8.576;2023-03-04T10:42:48;101300.97;;;11.98;35.74
38227;BME280;24026;49.446;8.576;2023-03-04T10:45:20;101296.88;;;11.96;35.92
38227;BME280;24026;49.446;8.576;2023-03-04T10:47:51;101296.66;;;11.97;35.67
38227;BME280;24026;49.446;8.576;2023-03-04T10:50:21;101291.56;;;11.96;35.69
38227;BME280;24026;49.446;8.576;2023-03-04T10:52:46;101294.56;;;11.99;35.53
38227;BME280;24026;49.446;8.576;2023-03-04T10:55:17;101297.00;;;12.01;35.71
38227;BME280;24026;49.446;8.576;2023-03-04T10:57:40;101283.47;;;12.02;35.63
38227;BME280;24026;49.446;8.576;2023-03-04T11:02:43;101276.09;;;12.04;35.62
38227;BME280;24026;49.446;8.576;2023-03-04T11:07:28;101286.47;;;12.06;35.66
38227;BME280;24026;49.446;8.576;2023-03-04T11:09:49;101274.66;;;12.02;35.92
38227;BME280;24026;49.446;8.576;2023-03-04T11:12:12;101272.59;;;12.04;36.05
38227;BME280;24026;49.446;8.576;2023-03-04T11:14:40;101269.69;;;12.05;35.89
38227;BME280;24026;49.446;8.576;2023-03-04T11:19:47;101262.28;;;12.08;35.78
38227;BME280;24026;49.446;8.576;2023-03-04T11:22:09;101258.34;;;12.10;35.85
38227;BME280;24026;49.446;8.576;2023-03-04T11:24:34;101253.59;;;12.12;35.64
38227;BME280;24026;49.446;8.576;2023-03-04T11:27:29;101256.13;;;12.07;35.85
38227;BME280;24026;49.446;8.576;2023-03-04T11:30:02;101247.47;;;12.12;35.68
38227;BME280;24026;49.446;8.576;2023-03-04T11:32:26;101247.00;;;12.15;35.76
38227;BME280;24026;49.446;8.576;2023-03-04T11:34:59;101250.69;;;12.14;35.82
38227;BME280;24026;49.446;8.576;2023-03-04T11:37:40;101243.50;;;12.14;35.71
38227;BME280;24026;49.446;8.576;2023-03-04T11:40:17;101240.28;;;12.12;35.91
38227;BME280;24026;49.446;8.576;2023-03-04T11:42:59;101240.03;;;12.14;35.64
38227;BME280;24026;49.446;8.576;2023-03-04T11:45:46;101243.50;;;12.14;35.81
38227;BME280;24026;49.446;8.576;2023-03-04T11:48:28;101241.69;;;12.15;35.71
38227;BME280;24026;49.446;8.576;2023-03-04T11:55:55;101245.50;;;12.19;35.74
38227;BME280;24026;49.446;8.576;2023-03-04T12:03:53;101228.47;;;12.20;35.51
38227;BME280;24026;49.446;8.576;2023-03-04T12:09:12;101226.72;;;12.26;35.43
38227;BME280;24026;49.446;8.576;2023-03-04T12:11:39;101221.38;;;12.26;35.57
38227;BME280;24026;49.446;8.576;2023-03-04T12:19:58;101209.69;;;12.27;35.44
38227;BME280;24026;49.446;8.576;2023-03-04T12:22:32;101200.63;;;12.28;35.37
38227;BME280;24026;49.446;8.576;2023-03-04T12:28:09;101193.59;;;12.21;35.61
38227;BME280;24026;49.446;8.576;2023-03-04T12:40:54;101193.00;;;12.31;35.30
38227;BME280;24026;49.446;8.576;2023-03-04T12:48:29;101180.72;;;12.30;35.64
38227;BME280;24026;49.446;8.576;2023-03-04T12:53:58;101174.59;;;12.30;35.37
38227;BME280;24026;49.446;8.576;2023-03-04T12:56:40;101173.97;;;12.28;35.07
38227;BME280;24026;49.446;8.576;2023-03-04T12:59:04;101169.59;;;12.33;35.29
38227;BME280;24026;49.446;8.576;2023-03-04T13:01:35;101169.81;;;12.32;35.32
38227;BME280;24026;49.446;8.576;2023-03-04T13:04:11;101169.81;;;12.32;35.29
38227;BME280;24026;49.446;8.576;2023-03-04T13:06:54;101171.09;;;12.29;35.41
38227;BME280;24026;49.446;8.576;2023-03-04T13:10:00;101167.97;;;12.32;35.37
38227;BME280;24026;49.446;8.576;2023-03-04T13:12:17;101172.25;;;12.33;35.38
38227;BME280;24026;49.446;8.576;2023-03-04T13:14:38;101165.63;;;12.36;35.25
38227;BME280;24026;49.446;8.576;2023-03-04T13:17:46;101159.97;;;12.32;35.26
38227;BME280;24026;49.446;8.576;2023-03-04T13:22:40;101160.66;;;12.28;35.21
38227;BME280;24026;49.446;8.576;2023-03-04T13:28:11;101155.31;;;12.28;35.44
38227;BME280;24026;49.446;8.576;2023-03-04T13:32:53;101151.16;;;12.32;35.31
38227;BME280;24026;49.446;8.576;2023-03-04T13:38:19;101152.22;;;12.19;35.44
38227;BME280;24026;49.446;8.576;2023-03-04T13:40:40;101149.41;;;12.26;35.51
38227;BME280;24026;49.446;8.576;2023-03-04T13:43:43;101146.19;;;12.23;35.49
38227;BME280;24026;49.446;8.576;2023-03-04T13:48:39;101138.53;;;12.27;35.17
38227;BME280;24026;49.446;8.576;2023-03-04T13:51:00;101132.72;;;12.30;35.49
38227;BME280;24026;49.446;8.576;2023-03-04T13:53:42;101132.63;;;12.25;35.35